createdAt,value
2019-04-29T00:00:04.906Z,8.01
2019-04-29T00:04:08.683Z,7.96
2019-04-29T00:08:12.492Z,7.94
2019-04-29T00:12:16.200Z,7.92
2019-04-29T00:16:30.266Z,7.88
2019-04-29T00:20:35.378Z,7.88
2019-04-29T00:24:38.868Z,7.88
2019-04-29T00:28:42.645Z,7.85
2019-04-29T00:32:46.170Z,7.84
2019-04-29T00:37:00.136Z,7.74
2019-04-29T00:41:05.570Z,7.66
2019-04-29T00:45:09.587Z,7.64
2019-04-29T00:49:13.411Z,7.60
2019-04-29T00:53:17.224Z,7.58
2019-04-29T00:57:21.055Z,7.62
2019-04-29T01:01:26.023Z,7.64
2019-04-29T01:05:29.638Z,7.65
2019-04-29T01:09:33.381Z,7.72
2019-04-29T01:13:36.846Z,7.67
2019-04-29T01:17:40.660Z,7.75
2019-04-29T01:21:44.137Z,7.80
2019-04-29T01:25:49.254Z,7.75
2019-04-29T01:29:53.043Z,7.74
2019-04-29T01:33:58.152Z,7.76
2019-04-29T01:38:01.628Z,7.81
2019-04-29T01:42:07.154Z,7.91
2019-04-29T01:46:10.626Z,7.87
2019-04-29T01:50:14.097Z,7.86
2019-04-29T01:54:17.567Z,7.88
2019-04-29T01:58:21.445Z,7.93
2019-04-29T02:02:24.983Z,7.95
2019-04-29T02:06:28.875Z,7.97
2019-04-29T02:10:34.503Z,7.97
2019-04-29T02:14:37.984Z,7.96
2019-04-29T02:18:41.476Z,7.80
2019-04-29T02:22:52.592Z,7.84
2019-04-29T02:26:56.082Z,7.78
2019-04-29T02:31:01.594Z,7.82
2019-04-29T02:35:06.021Z,7.82
2019-04-29T02:39:15.588Z,7.94
2019-04-29T02:43:29.945Z,7.93
2019-04-29T02:47:33.418Z,7.89
2019-04-29T02:51:44.467Z,7.93
2019-04-29T02:55:49.589Z,7.89
2019-04-29T03:00:01.268Z,7.93
2019-04-29T03:04:06.738Z,7.90
2019-04-29T03:08:10.390Z,7.91
2019-04-29T03:12:14.030Z,8.10
2019-04-29T03:16:19.159Z,8.09
2019-04-29T03:20:33.066Z,8.07
2019-04-29T03:24:36.847Z,8.05
2019-04-29T03:28:40.297Z,8.10
2019-04-29T03:32:43.782Z,8.06
2019-04-29T03:36:47.629Z,8.05
2019-04-29T03:40:51.178Z,8.03
2019-04-29T03:44:54.671Z,8.05
2019-04-29T03:48:58.142Z,8.05
2019-04-29T03:53:01.652Z,8.12
2019-04-29T03:57:05.693Z,8.18
2019-04-29T04:01:27.650Z,8.09
2019-04-29T04:05:38.631Z,8.11
2019-04-29T04:09:42.450Z,8.09
2019-04-29T04:13:45.926Z,8.14
2019-04-29T04:17:57.008Z,8.18
2019-04-29T04:22:00.485Z,8.21
2019-04-29T04:26:04.027Z,8.28
2019-04-29T04:30:07.811Z,8.23
2019-04-29T04:34:11.615Z,8.30
2019-04-29T04:38:15.433Z,8.43
2019-04-29T04:42:18.918Z,8.39
2019-04-29T04:46:22.392Z,8.37
2019-04-29T04:50:26.166Z,8.47
2019-04-29T04:54:31.552Z,8.50
2019-04-29T04:58:34.896Z,8.48
2019-04-29T05:02:38.389Z,8.50
2019-04-29T05:06:41.942Z,8.54
2019-04-29T05:10:45.755Z,8.41
2019-04-29T05:14:49.231Z,8.55
2019-04-29T05:18:52.781Z,8.58
2019-04-29T05:22:59.886Z,8.56
2019-04-29T05:27:03.705Z,8.54
2019-04-29T05:31:07.309Z,8.55
2019-04-29T05:35:12.424Z,8.64
2019-04-29T05:39:26.503Z,8.52
2019-04-29T05:43:34.604Z,8.52
2019-04-29T05:47:40.104Z,8.47
2019-04-29T05:51:48.309Z,8.56
2019-04-29T05:55:52.610Z,8.58
2019-04-29T05:59:56.344Z,8.60
2019-04-29T06:03:59.815Z,8.60
2019-04-29T06:08:03.614Z,8.71
2019-04-29T06:12:07.103Z,8.78
2019-04-29T06:16:10.597Z,8.73
2019-04-29T06:20:17.977Z,8.85
2019-04-29T06:24:19.898Z,8.87
2019-04-29T06:28:26.362Z,8.75
2019-04-29T06:32:28.973Z,8.87
2019-04-29T06:36:32.793Z,9.02
2019-04-29T06:40:36.957Z,8.84
2019-04-29T06:44:40.536Z,8.88
2019-04-29T06:48:45.741Z,8.75
2019-04-29T06:52:49.220Z,8.83
2019-04-29T06:56:52.710Z,8.86
2019-04-29T07:01:01.149Z,8.98
2019-04-29T07:05:01.419Z,8.90
2019-04-29T07:09:07.138Z,8.95
2019-04-29T07:13:10.948Z,8.98
2019-04-29T07:17:14.535Z,9.02
2019-04-29T07:21:18.611Z,9.16
2019-04-29T07:25:24.663Z,9.28
2019-04-29T07:29:30.539Z,9.29
2019-04-29T07:33:32.575Z,9.32
2019-04-29T07:37:36.077Z,9.26
2019-04-29T07:41:39.547Z,9.28
2019-04-29T07:45:50.580Z,9.37
2019-04-29T07:49:54.131Z,9.40
2019-04-29T07:53:57.590Z,9.37
2019-04-29T07:58:01.087Z,9.43
2019-04-29T08:02:04.581Z,9.46
2019-04-29T08:06:08.238Z,9.68
2019-04-29T08:10:23.264Z,9.62
2019-04-29T08:14:19.080Z,9.57
2019-04-29T08:18:22.575Z,9.67
2019-04-29T08:22:27.828Z,9.74
2019-04-29T08:26:33.595Z,9.77
2019-04-29T08:30:36.900Z,9.62
2019-04-29T08:34:41.015Z,9.70
2019-04-29T08:38:45.266Z,9.80
2019-04-29T08:42:50.593Z,9.71
2019-04-29T08:46:59.856Z,9.65
2019-04-29T08:51:03.813Z,9.64
2019-04-29T08:55:08.674Z,9.58
2019-04-29T08:59:12.400Z,9.65
2019-04-29T09:03:18.865Z,9.73
2019-04-29T09:07:22.205Z,9.74
2019-04-29T09:11:26.671Z,9.79
2019-04-29T09:15:30.214Z,9.95
2019-04-29T09:19:33.639Z,9.93
2019-04-29T09:23:38.952Z,10.04
2019-04-29T09:27:44.944Z,10.03
2019-04-29T09:31:49.266Z,9.98
2019-04-29T09:35:52.747Z,10.09
2019-04-29T09:39:56.417Z,10.08
2019-04-29T09:44:03.876Z,10.07
2019-04-29T09:48:07.851Z,10.04
2019-04-29T09:52:12.462Z,9.94
2019-04-29T09:56:16.351Z,9.80
2019-04-29T10:00:22.315Z,9.82
2019-04-29T10:04:55.971Z,9.76
2019-04-29T10:08:49.514Z,9.82
2019-04-29T10:12:54.117Z,9.78
2019-04-29T10:17:16.726Z,9.80
2019-04-29T10:21:21.354Z,9.74
2019-04-29T10:25:25.971Z,9.80
2019-04-29T10:29:31.087Z,9.82
2019-04-29T10:33:34.568Z,9.71
2019-04-29T10:37:38.376Z,9.79
2019-04-29T10:41:43.586Z,9.93
2019-04-29T10:46:07.075Z,10.18
2019-04-29T10:50:17.026Z,10.49
2019-04-29T10:54:20.702Z,10.58
2019-04-29T10:58:29.836Z,10.73
2019-04-29T11:02:32.537Z,11.11
2019-04-29T11:06:37.071Z,11.26
2019-04-29T11:10:41.085Z,11.38
2019-04-29T11:14:44.583Z,11.39
2019-04-29T11:18:48.121Z,11.63
2019-04-29T11:22:53.349Z,11.82
2019-04-29T11:27:14.862Z,12.04
2019-04-29T11:31:19.287Z,11.77
2019-04-29T11:35:28.432Z,11.80
2019-04-29T11:39:35.537Z,11.96
2019-04-29T11:43:39.267Z,12.58
2019-04-29T11:47:44.078Z,12.84
2019-04-29T11:52:08.548Z,13.27
2019-04-29T11:55:56.984Z,13.19
2019-04-29T12:00:03.324Z,13.42
2019-04-29T12:04:15.085Z,13.83
2019-04-29T12:08:18.632Z,15.21
2019-04-29T12:12:22.825Z,15.21
2019-04-29T12:16:27.968Z,14.83
2019-04-29T12:20:39.249Z,14.84
2019-04-29T12:24:43.074Z,14.72
2019-04-29T12:28:46.632Z,14.71
2019-04-29T12:32:51.822Z,14.86
2019-04-29T12:36:56.812Z,14.37
2019-04-29T12:41:20.508Z,14.37
2019-04-29T12:45:20.891Z,14.77
2019-04-29T12:49:24.360Z,14.80
2019-04-29T12:53:27.883Z,15.30
2019-04-29T12:57:31.373Z,15.42
2019-04-29T13:01:51.322Z,15.21
2019-04-29T13:05:58.377Z,15.17
2019-04-29T13:10:18.844Z,15.87
2019-04-29T13:14:23.969Z,16.42
2019-04-29T13:18:48.971Z,16.06
2019-04-29T13:22:53.593Z,16.42
2019-04-29T13:26:57.092Z,16.08
2019-04-29T13:31:00.586Z,16.49
2019-04-29T13:35:10.904Z,16.66
2019-04-29T13:39:37.880Z,16.44
2019-04-29T13:43:25.918Z,17.14
2019-04-29T13:47:33.407Z,17.06
2019-04-29T13:51:41.610Z,17.15
2019-04-29T13:55:49.184Z,17.22
2019-04-29T14:00:01.702Z,17.49
2019-04-29T14:04:07.457Z,17.59
2019-04-29T14:08:10.943Z,17.28
2019-04-29T14:12:47.255Z,16.94
2019-04-29T14:16:19.651Z,16.62
2019-04-29T14:20:23.131Z,16.42
2019-04-29T14:24:26.616Z,16.22
2019-04-29T14:28:30.475Z,16.20
2019-04-29T14:32:38.074Z,15.97
2019-04-29T14:36:39.823Z,16.11
2019-04-29T14:40:43.977Z,16.19
2019-04-29T14:45:07.711Z,16.38
2019-04-29T14:49:12.870Z,16.40
2019-04-29T14:53:19.539Z,16.47
2019-04-29T14:57:22.303Z,16.24
2019-04-29T15:01:36.561Z,16.18
2019-04-29T15:05:40.192Z,15.88
2019-04-29T15:09:57.564Z,15.95
2019-04-29T15:14:02.923Z,15.87
2019-04-29T15:18:16.508Z,15.68
2019-04-29T15:22:20.802Z,15.67
2019-04-29T15:26:24.282Z,15.55
2019-04-29T15:30:31.804Z,15.55
2019-04-29T15:34:33.395Z,15.65
2019-04-29T15:38:36.955Z,15.66
2019-04-29T15:42:43.160Z,15.17
2019-04-29T15:46:46.871Z,15.13
2019-04-29T15:50:50.722Z,14.99
2019-04-29T15:54:54.571Z,15.10
2019-04-29T15:58:59.607Z,15.15
2019-04-29T16:03:03.285Z,15.05
2019-04-29T16:07:23.571Z,14.85
2019-04-29T16:11:45.128Z,14.78
2019-04-29T16:15:48.996Z,14.74
2019-04-29T16:19:52.490Z,14.80
2019-04-29T16:23:57.764Z,14.77
2019-04-29T16:28:01.483Z,14.73
2019-04-29T16:32:06.658Z,14.55
2019-04-29T16:36:10.129Z,14.42
2019-04-29T16:40:14.325Z,14.34
2019-04-29T16:44:34.676Z,14.29
2019-04-29T16:48:25.041Z,14.17
2019-04-29T16:52:28.526Z,14.04
2019-04-29T16:56:32.034Z,13.98
2019-04-29T17:00:37.227Z,13.90
2019-04-29T17:04:41.169Z,13.81
2019-04-29T17:08:50.610Z,13.78
2019-04-29T17:12:51.902Z,13.73
2019-04-29T17:16:55.393Z,13.56
2019-04-29T17:21:04.717Z,13.47
2019-04-29T17:25:08.055Z,13.38
2019-04-29T17:29:39.017Z,13.31
2019-04-29T17:33:54.939Z,13.25
2019-04-29T17:38:01.068Z,13.13
2019-04-29T17:42:04.320Z,12.95
2019-04-29T17:46:14.228Z,12.86
2019-04-29T17:50:29.925Z,12.88
2019-04-29T17:54:30.355Z,12.62
2019-04-29T17:58:35.887Z,12.61
2019-04-29T18:02:47.440Z,12.45
2019-04-29T18:06:58.693Z,12.30
2019-04-29T18:11:06.459Z,12.11
2019-04-29T18:15:10.794Z,12.03
2019-04-29T18:19:18.649Z,11.81
2019-04-29T18:23:24.048Z,11.81
2019-04-29T18:27:29.182Z,11.64
2019-04-29T18:31:32.943Z,11.44
2019-04-29T18:35:36.441Z,11.23
2019-04-29T18:39:40.104Z,10.99
2019-04-29T18:43:45.214Z,10.74
2019-04-29T18:47:49.013Z,10.53
2019-04-29T18:51:52.526Z,10.55
2019-04-29T18:55:56.007Z,10.54
2019-04-29T19:00:06.756Z,10.52
2019-04-29T19:04:16.145Z,10.45
2019-04-29T19:08:22.999Z,10.32
2019-04-29T19:12:21.903Z,10.19
2019-04-29T19:16:27.330Z,10.01
2019-04-29T19:20:30.612Z,9.78
2019-04-29T19:24:36.283Z,9.62
2019-04-29T19:28:39.316Z,9.45
2019-04-29T19:32:45.006Z,9.29
2019-04-29T19:36:50.647Z,9.18
2019-04-29T19:40:53.528Z,9.21
2019-04-29T19:44:57.321Z,9.04
2019-04-29T19:49:07.421Z,8.95
2019-04-29T19:53:06.377Z,8.88
2019-04-29T19:57:11.374Z,8.80
2019-04-29T20:01:26.568Z,8.83
2019-04-29T20:05:23.648Z,8.66
2019-04-29T20:09:28.768Z,8.61
2019-04-29T20:13:34.705Z,8.51
2019-04-29T20:17:58.125Z,8.41
2019-04-29T20:22:07.477Z,8.28
2019-04-29T20:26:15.381Z,8.23
2019-04-29T20:30:19.328Z,8.20
2019-04-29T20:34:23.777Z,8.25
2019-04-29T20:38:25.359Z,8.14
2019-04-29T20:42:29.373Z,7.92
2019-04-29T20:46:44.030Z,7.57
2019-04-29T20:50:40.959Z,7.49
2019-04-29T20:54:45.226Z,7.43
2019-04-29T20:58:49.982Z,7.45
2019-04-29T21:02:53.673Z,7.42
2019-04-29T21:07:00.502Z,7.47
2019-04-29T21:11:05.741Z,7.38
2019-04-29T21:15:24.937Z,7.35
2019-04-29T21:19:29.119Z,7.24
2019-04-29T21:23:35.445Z,7.31
2019-04-29T21:27:38.104Z,7.19
2019-04-29T21:31:41.654Z,7.10
2019-04-29T21:35:49.550Z,7.08
2019-04-29T21:39:55.090Z,7.07
2019-04-29T21:43:59.933Z,6.99
2019-04-29T21:48:03.565Z,6.95
2019-04-29T21:52:07.487Z,6.80
2019-04-29T21:56:11.307Z,6.70
2019-04-29T22:00:19.675Z,6.69
2019-04-29T22:04:20.542Z,6.65
2019-04-29T22:08:27.611Z,6.62
2019-04-29T22:12:29.424Z,6.66
2019-04-29T22:16:35.551Z,6.61
2019-04-29T22:20:42.181Z,6.58
2019-04-29T22:24:45.502Z,6.48
2019-04-29T22:28:53.276Z,6.52
2019-04-29T22:32:56.125Z,6.58
2019-04-29T22:37:01.088Z,6.58
2019-04-29T22:41:06.711Z,6.59
2019-04-29T22:45:13.545Z,6.52
2019-04-29T22:49:24.453Z,6.35
2019-04-29T22:53:24.925Z,6.31
2019-04-29T22:57:31.644Z,6.21
2019-04-29T23:01:36.306Z,6.12
2019-04-29T23:05:39.559Z,6.12
2019-04-29T23:09:46.243Z,5.97
2019-04-29T23:13:49.080Z,5.91
2019-04-29T23:17:52.904Z,5.80
2019-04-29T23:22:03.462Z,5.74
2019-04-29T23:26:07.014Z,5.63
2019-04-29T23:30:13.576Z,5.60
2019-04-29T23:34:17.743Z,5.54
2019-04-29T23:38:21.590Z,5.63
2019-04-29T23:42:26.064Z,5.56
2019-04-29T23:46:29.853Z,5.43
2019-04-29T23:50:35.915Z,5.42
2019-04-29T23:54:45.564Z,5.36
2019-04-29T23:58:47.104Z,5.33
